首页
METAR-TAF:

METAR-TAF

机场 :

伊瓦格, 哥伦比亚

纬度: 04-26N, 经度: 075-09W, 海拔: 928米

当前天气观测

该预报发布于33分钟前的02:00 UTC
风速3节,风向东北
温度 25°C
湿度 79%
气压 1018 hPa
能见度10公里或以上
少量云层高于2000英尺
多云层高于10000英尺

METAR: SKIB 250200Z 05003KT 9999 FEW020 BKN100 25/21 Q1018

时间: 21:33 (02:33 UTC)


TAF: 丢失

超过4000个机场的气象观测和天气预报(METAR&TAF报告)。

可查询的气象台以黄色和红色小点在地图上表示。

将鼠标移到小点上方,可查看气象台名称。

然后点击查看天气观测和预报。

如需切换地图:点击带黑十字的绿色按钮放大地图;点击带横线的绿色按钮缩小地图;或者点击绿色箭头查看邻近地区的地图。


METAR-TAF: